createdAt,value
2024-04-15T00:01:08.270Z,101045.75
2024-04-15T00:03:36.097Z,101024.22
2024-04-15T00:06:03.844Z,101027.97
2024-04-15T00:08:31.626Z,101035.53
2024-04-15T00:11:03.454Z,101022.28
2024-04-15T00:13:31.212Z,101021.63
2024-04-15T00:15:59.939Z,101050.03
2024-04-15T00:18:27.958Z,101034.75
2024-04-15T00:21:00.505Z,101007.31
2024-04-15T00:23:29.203Z,101007.22
2024-04-15T00:26:00.498Z,101022.50
2024-04-15T00:28:30.194Z,101006.13
2024-04-15T00:30:57.889Z,101009.38
2024-04-15T00:33:25.843Z,101003.75
2024-04-15T00:35:53.646Z,101009.56
2024-04-15T00:38:21.416Z,100982.81
2024-04-15T00:40:49.151Z,101011.00
2024-04-15T00:43:17.084Z,100993.69
2024-04-15T00:45:44.966Z,100982.38
2024-04-15T00:48:19.596Z,100980.97
2024-04-15T00:50:49.867Z,100981.81
2024-04-15T00:53:22.710Z,100966.84
2024-04-15T00:55:54.426Z,100982.03
2024-04-15T00:58:23.833Z,100930.41
2024-04-15T01:00:53.353Z,100948.66
2024-04-15T01:03:23.328Z,100961.72
2024-04-15T01:05:51.873Z,100944.94
2024-04-15T01:08:19.747Z,100953.53
2024-04-15T01:10:55.622Z,100960.19
2024-04-15T01:13:28.432Z,100930.81
2024-04-15T01:16:00.567Z,100926.06
2024-04-15T01:18:33.539Z,100951.53
2024-04-15T01:21:03.953Z,100930.16
2024-04-15T01:23:32.870Z,100941.56
2024-04-15T01:26:04.612Z,100945.00
2024-04-15T01:28:32.282Z,100938.13
2024-04-15T01:30:59.992Z,100912.53
2024-04-15T01:33:28.613Z,100918.22
2024-04-15T01:35:56.299Z,100897.88
2024-04-15T01:38:26.954Z,100866.41
2024-04-15T01:40:56.012Z,100888.03
2024-04-15T01:43:26.798Z,100863.69
2024-04-15T01:45:55.069Z,100861.19
2024-04-15T01:48:23.004Z,100855.41
2024-04-15T01:50:50.794Z,100868.63
2024-04-15T01:53:19.304Z,100831.72
2024-04-15T01:55:48.155Z,100862.75
2024-04-15T01:58:18.146Z,100851.03
2024-04-15T02:00:45.974Z,100828.13
2024-04-15T02:03:17.621Z,100834.69
2024-04-15T02:05:45.304Z,100839.63
2024-04-15T02:08:12.967Z,100815.97
2024-04-15T02:10:42.488Z,100827.97
2024-04-15T02:13:10.388Z,100800.38
2024-04-15T02:15:39.286Z,100806.72
2024-04-15T02:18:07.071Z,100782.88
2024-04-15T02:20:34.779Z,100811.97
2024-04-15T02:23:02.496Z,100810.03
2024-04-15T02:25:30.418Z,100786.63
2024-04-15T02:27:58.096Z,100782.88
2024-04-15T02:30:25.841Z,100762.25
2024-04-15T02:32:53.577Z,100732.38
2024-04-15T02:35:21.311Z,100748.16
2024-04-15T02:37:48.965Z,100731.53
2024-04-15T02:40:16.735Z,100741.50
2024-04-15T02:42:44.438Z,100741.72
2024-04-15T02:45:12.515Z,100739.28
2024-04-15T02:47:40.706Z,100741.97
2024-04-15T02:50:08.784Z,100717.81
2024-04-15T02:52:36.445Z,100718.22
2024-04-15T02:55:04.311Z,100731.66
2024-04-15T02:57:32.022Z,100726.81
2024-04-15T02:59:59.780Z,100696.13
2024-04-15T03:02:28.090Z,100719.41
2024-04-15T03:04:57.411Z,100725.53
2024-04-15T03:07:25.127Z,100705.22
2024-04-15T03:09:57.491Z,100719.72
2024-04-15T03:12:25.369Z,100709.94
2024-04-15T03:14:53.097Z,100708.53
2024-04-15T03:17:21.554Z,100698.25
2024-04-15T03:19:54.444Z,100676.78
2024-04-15T03:22:25.133Z,100683.88
2024-04-15T03:24:52.795Z,100683.88
2024-04-15T03:27:20.566Z,100679.47
2024-04-15T03:29:49.004Z,100671.97
2024-04-15T03:32:16.694Z,100646.09
2024-04-15T03:34:44.536Z,100648.47
2024-04-15T03:37:12.345Z,100672.16
2024-04-15T03:39:40.041Z,100656.72
2024-04-15T03:42:07.685Z,100672.38
2024-04-15T03:44:40.018Z,100624.00
2024-04-15T03:47:11.853Z,100646.75
2024-04-15T03:49:40.341Z,100637.91
2024-04-15T03:52:08.073Z,100633.75
2024-04-15T03:55:01.681Z,100633.06
2024-04-15T03:57:31.993Z,100648.44
2024-04-15T03:59:59.764Z,100636.28
2024-04-15T04:02:30.590Z,100637.38
2024-04-15T04:04:58.414Z,100584.25
2024-04-15T04:07:26.161Z,100615.28
2024-04-15T04:09:54.654Z,100611.50
2024-04-15T04:12:22.342Z,100626.72
2024-04-15T04:14:50.045Z,100613.22
2024-04-15T04:17:17.831Z,100602.16
2024-04-15T04:19:45.545Z,100610.41
2024-04-15T04:22:13.252Z,100613.91
2024-04-15T04:24:42.428Z,100596.22
2024-04-15T04:27:10.087Z,100596.84
2024-04-15T04:29:37.983Z,100580.34
2024-04-15T04:32:07.052Z,100601.88
2024-04-15T04:34:37.580Z,100595.03
2024-04-15T04:37:05.355Z,100592.38
2024-04-15T04:39:33.033Z,100597.09
2024-04-15T04:42:00.814Z,100578.00
2024-04-15T04:44:28.662Z,100576.91
2024-04-15T04:46:58.742Z,100596.63
2024-04-15T04:49:26.306Z,100596.38
2024-04-15T04:51:54.073Z,100567.34
2024-04-15T04:54:22.517Z,100556.09
2024-04-15T04:57:15.463Z,100567.47
2024-04-15T04:59:43.272Z,100581.94
2024-04-15T05:02:12.758Z,100567.88
2024-04-15T05:04:42.145Z,100565.53
2024-04-15T05:10:05.318Z,100557.81
2024-04-15T05:12:33.775Z,100569.34
2024-04-15T05:15:02.474Z,100557.16
2024-04-15T05:17:30.233Z,100503.00
2024-04-15T05:19:58.179Z,100528.13
2024-04-15T05:22:25.927Z,100537.56
2024-04-15T05:24:55.863Z,100534.41
2024-04-15T05:27:25.537Z,100531.16
2024-04-15T05:29:55.707Z,100534.63
2024-04-15T05:32:23.532Z,100546.63
2024-04-15T05:34:52.140Z,100551.16
2024-04-15T05:37:19.985Z,100546.88
2024-04-15T05:39:48.897Z,100542.47
2024-04-15T05:42:16.781Z,100532.09
2024-04-15T05:44:46.072Z,100525.72
2024-04-15T05:47:13.715Z,100507.03
2024-04-15T05:49:43.917Z,100527.56
2024-04-15T05:52:11.621Z,100504.03
2024-04-15T05:54:39.425Z,100472.19
2024-04-15T05:57:32.794Z,100506.09
2024-04-15T06:00:00.609Z,100458.66
2024-04-15T06:02:28.307Z,100481.78
2024-04-15T06:05:00.003Z,100486.31
2024-04-15T06:07:28.536Z,100499.88
2024-04-15T06:09:56.254Z,100488.94
2024-04-15T06:12:26.497Z,100460.06
2024-04-15T06:14:54.303Z,100469.63
2024-04-15T06:17:22.096Z,100456.41
2024-04-15T06:19:50.588Z,100443.66
2024-04-15T06:22:19.844Z,100474.50
2024-04-15T06:24:47.885Z,100457.00
2024-04-15T06:27:17.119Z,100475.47
2024-04-15T06:29:44.771Z,100459.47
2024-04-15T06:32:12.506Z,100453.09
2024-04-15T06:34:40.184Z,100439.78
2024-04-15T06:37:07.968Z,100435.50
2024-04-15T06:39:35.898Z,100425.84
2024-04-15T06:42:04.383Z,100431.09
2024-04-15T06:44:36.762Z,100410.16
2024-04-15T06:47:04.736Z,100409.06
2024-04-15T06:49:33.351Z,100430.81
2024-04-15T06:52:02.882Z,100406.16
2024-04-15T06:54:30.560Z,100410.41
2024-04-15T06:56:58.239Z,100413.00
2024-04-15T06:59:33.048Z,100407.63
2024-04-15T07:02:04.797Z,100392.09
2024-04-15T07:04:32.539Z,100393.88
2024-04-15T07:07:02.256Z,100375.91
2024-04-15T07:09:29.952Z,100395.06
2024-04-15T07:11:58.458Z,100389.84
2024-04-15T07:14:26.110Z,100361.84
2024-04-15T07:16:54.014Z,100363.81
2024-04-15T07:19:22.721Z,100371.44
2024-04-15T07:21:50.505Z,100364.06
2024-04-15T07:24:18.230Z,100356.78
2024-04-15T07:26:49.682Z,100364.47
2024-04-15T07:29:17.278Z,100376.72
2024-04-15T07:31:45.059Z,100359.31
2024-04-15T07:34:12.807Z,100367.78
2024-04-15T07:36:40.564Z,100351.75
2024-04-15T07:39:09.609Z,100328.41
2024-04-15T07:41:38.099Z,100358.22
2024-04-15T07:44:06.005Z,100332.69
2024-04-15T07:46:36.125Z,100338.47
2024-04-15T07:49:05.664Z,100310.91
2024-04-15T07:51:33.398Z,100326.91
2024-04-15T07:54:01.699Z,100332.94
2024-04-15T07:56:29.351Z,100315.00
2024-04-15T07:58:57.008Z,100333.66
2024-04-15T08:01:24.812Z,100311.78
2024-04-15T08:03:53.489Z,100296.69
2024-04-15T08:06:21.232Z,100314.06
2024-04-15T08:08:48.878Z,100304.63
2024-04-15T08:11:18.475Z,100300.19
2024-04-15T08:13:46.175Z,100309.72
2024-04-15T08:16:14.132Z,100321.78
2024-04-15T08:18:41.900Z,100321.09
2024-04-15T08:21:09.647Z,100304.66
2024-04-15T08:23:37.548Z,100332.91
2024-04-15T08:26:08.610Z,100314.84
2024-04-15T08:28:37.169Z,100307.09
2024-04-15T08:31:05.092Z,100290.97
2024-04-15T08:33:33.045Z,100265.31
2024-04-15T08:36:02.589Z,100297.53
2024-04-15T08:38:31.077Z,100294.56
2024-04-15T08:41:01.991Z,100306.44
2024-04-15T08:43:30.755Z,100267.66
2024-04-15T08:46:05.115Z,100297.25
2024-04-15T08:48:34.347Z,100270.94
2024-04-15T08:51:02.205Z,100245.31
2024-04-15T08:53:31.636Z,100232.66
2024-04-15T08:55:59.872Z,100243.53
2024-04-15T08:58:27.690Z,100208.31
2024-04-15T09:00:55.776Z,100234.09
2024-04-15T09:03:25.062Z,100197.44
2024-04-15T09:05:52.771Z,100204.81
2024-04-15T09:08:22.156Z,100232.66
2024-04-15T09:10:50.299Z,100209.03
2024-04-15T09:13:18.092Z,100227.25
2024-04-15T09:15:51.271Z,100218.16
2024-04-15T09:18:20.657Z,100204.53
2024-04-15T09:20:58.131Z,100191.47
2024-04-15T09:23:30.466Z,100196.84
2024-04-15T09:25:58.474Z,100183.19
2024-04-15T09:28:27.757Z,100179.09
2024-04-15T09:33:50.714Z,100175.50
2024-04-15T09:36:20.030Z,100123.72
2024-04-15T09:38:51.653Z,100156.28
2024-04-15T09:41:21.301Z,100132.38
2024-04-15T09:43:50.400Z,100139.16
2024-04-15T09:46:19.925Z,100132.88
2024-04-15T09:48:53.756Z,100096.81
2024-04-15T09:51:25.100Z,100116.16
2024-04-15T09:53:55.057Z,100069.50
2024-04-15T09:56:30.759Z,100119.34
2024-04-15T09:59:00.188Z,100088.53
2024-04-15T10:01:32.629Z,100104.97
2024-04-15T10:04:12.092Z,100082.91
2024-04-15T10:06:53.286Z,100111.34
2024-04-15T10:09:22.220Z,100085.34
2024-04-15T10:11:51.446Z,100092.78
2024-04-15T10:14:21.220Z,100072.50
2024-04-15T10:16:50.988Z,100073.03
2024-04-15T10:19:35.590Z,100055.06
2024-04-15T10:22:06.034Z,100035.75
2024-04-15T10:24:33.972Z,100036.38
2024-04-15T10:27:05.272Z,100045.47
2024-04-15T10:29:34.791Z,100049.19
2024-04-15T10:32:02.510Z,100028.16
2024-04-15T10:34:31.833Z,100003.19
2024-04-15T10:36:59.607Z,100011.50
2024-04-15T10:39:29.340Z,99991.78
2024-04-15T10:41:58.608Z,100008.97
2024-04-15T10:44:26.317Z,99997.56
2024-04-15T10:46:53.951Z,99993.53
2024-04-15T10:49:22.636Z,99972.50
2024-04-15T10:51:50.518Z,99976.63
2024-04-15T10:54:19.332Z,99980.50
2024-04-15T10:56:49.236Z,99954.06
2024-04-15T10:59:18.769Z,99968.06
2024-04-15T11:01:51.097Z,99960.94
2024-04-15T11:04:18.944Z,99940.31
2024-04-15T11:06:50.100Z,99946.72
2024-04-15T11:09:17.963Z,99944.31
2024-04-15T11:11:45.629Z,99918.16
2024-04-15T11:14:21.747Z,99922.84
2024-04-15T11:16:49.643Z,99920.50
2024-04-15T11:19:18.072Z,99907.69
2024-04-15T11:21:48.559Z,99886.00
2024-04-15T11:24:17.482Z,99898.97
2024-04-15T11:26:48.808Z,99883.69
2024-04-15T11:29:17.905Z,99857.66
2024-04-15T11:31:46.042Z,99877.81
2024-04-15T11:34:17.385Z,99848.91
2024-04-15T11:36:49.727Z,99845.53
2024-04-15T11:42:10.354Z,99841.06
2024-04-15T11:44:38.138Z,99853.16
2024-04-15T11:47:08.884Z,99838.13
2024-04-15T11:49:36.654Z,99812.50
2024-04-15T11:52:07.650Z,99798.13
2024-04-15T11:54:35.375Z,99817.38
2024-04-15T11:57:03.163Z,99810.56
2024-04-15T11:59:31.524Z,99795.06
2024-04-15T12:01:59.799Z,99774.06
2024-04-15T12:04:27.878Z,99754.28
2024-04-15T12:06:56.054Z,99753.81
2024-04-15T12:09:25.991Z,99766.41
2024-04-15T12:11:53.792Z,99748.06
2024-04-15T12:14:21.468Z,99735.78
2024-04-15T12:16:49.270Z,99715.31
2024-04-15T12:19:17.080Z,99720.88
2024-04-15T12:21:44.853Z,99722.50
2024-04-15T12:24:12.507Z,99709.81
2024-04-15T12:26:40.250Z,99700.56
2024-04-15T12:29:09.885Z,99699.69
2024-04-15T12:31:37.671Z,99703.44
2024-04-15T12:34:05.443Z,99702.41
2024-04-15T12:36:33.308Z,99662.38
2024-04-15T12:39:00.988Z,99655.28
2024-04-15T12:41:29.331Z,99671.06
2024-04-15T12:43:57.037Z,99638.03
2024-04-15T12:46:24.835Z,99670.56
2024-04-15T12:48:52.796Z,99648.38
2024-04-15T12:51:20.576Z,99625.53
2024-04-15T12:53:48.210Z,99613.53
2024-04-15T12:56:16.205Z,99634.50
2024-04-15T12:58:47.319Z,99617.41
2024-04-15T13:01:15.879Z,99613.00
2024-04-15T13:03:43.700Z,99620.63
2024-04-15T13:06:13.485Z,99612.31
2024-04-15T13:08:41.232Z,99584.53
2024-04-15T13:11:11.033Z,99581.75
2024-04-15T13:13:40.690Z,99573.63
2024-04-15T13:16:09.300Z,99601.47
2024-04-15T13:18:38.157Z,99584.91
2024-04-15T13:21:16.411Z,99591.63
2024-04-15T13:23:45.853Z,99582.78
2024-04-15T13:26:13.499Z,99543.28
2024-04-15T13:28:46.679Z,99562.41
2024-04-15T13:31:14.448Z,99558.19
2024-04-15T13:33:42.528Z,99550.56
2024-04-15T13:36:10.268Z,99531.63
2024-04-15T13:38:38.436Z,99497.94
2024-04-15T13:41:06.222Z,99509.47
2024-04-15T13:43:34.136Z,99487.38
2024-04-15T13:46:04.915Z,99498.56
2024-04-15T13:48:33.611Z,99493.81
2024-04-15T13:51:01.329Z,99495.00
2024-04-15T13:53:29.066Z,99486.88
2024-04-15T13:55:56.832Z,99454.41
2024-04-15T13:58:24.712Z,99479.41
2024-04-15T14:00:55.510Z,99461.50
2024-04-15T14:03:23.487Z,99458.94
2024-04-15T14:05:52.411Z,99435.97
2024-04-15T14:08:20.636Z,99447.41
2024-04-15T14:10:49.068Z,99436.31
2024-04-15T14:13:16.963Z,99431.28
2024-04-15T14:15:45.106Z,99397.94
2024-04-15T14:18:13.002Z,99390.19
2024-04-15T14:20:40.699Z,99399.84
2024-04-15T14:23:08.396Z,99373.97
2024-04-15T14:25:37.628Z,99371.44
2024-04-15T14:28:06.565Z,99368.91
2024-04-15T14:30:35.274Z,99377.84
2024-04-15T14:33:03.018Z,99350.19
2024-04-15T14:35:31.550Z,99362.13
2024-04-15T14:37:59.770Z,99367.91
2024-04-15T14:42:56.614Z,99372.16
2024-04-15T14:45:24.359Z,99365.38
2024-04-15T14:47:52.245Z,99388.16
2024-04-15T14:50:19.918Z,99319.41
2024-04-15T14:52:47.794Z,99350.63
2024-04-15T14:55:15.562Z,99372.66
2024-04-15T14:57:43.457Z,99369.50
2024-04-15T15:00:19.413Z,99369.25
2024-04-15T15:02:47.909Z,99362.75
2024-04-15T15:05:15.664Z,99338.22
2024-04-15T15:07:44.878Z,99329.19
2024-04-15T15:10:13.641Z,99306.22
2024-04-15T15:12:43.214Z,99316.41
2024-04-15T15:15:13.437Z,99314.88
2024-04-15T15:17:41.299Z,99316.06
2024-04-15T15:20:09.738Z,99314.59
2024-04-15T15:22:39.176Z,99286.75
2024-04-15T15:25:07.453Z,99270.75
2024-04-15T15:27:35.141Z,99282.25
2024-04-15T15:30:02.841Z,99275.50
2024-04-15T15:32:30.743Z,99271.91
2024-04-15T15:34:58.481Z,99248.25
2024-04-15T15:37:27.094Z,99233.78
2024-04-15T15:39:54.818Z,99240.59
2024-04-15T15:42:24.483Z,99219.94
2024-04-15T15:44:54.699Z,99195.53
2024-04-15T15:47:22.349Z,99153.41
2024-04-15T15:49:50.481Z,99196.72
2024-04-15T15:52:18.284Z,99189.81
2024-04-15T15:54:47.921Z,99180.94
2024-04-15T15:57:15.743Z,99148.91
2024-04-15T15:59:44.305Z,99135.97
2024-04-15T16:02:12.144Z,99142.75
2024-04-15T16:04:40.745Z,99162.59
2024-04-15T16:07:10.565Z,99145.78
2024-04-15T16:09:39.293Z,99155.97
2024-04-15T16:12:10.533Z,99297.50
2024-04-15T16:14:38.987Z,99286.41
2024-04-15T16:17:06.691Z,99327.50
2024-04-15T16:19:36.743Z,99250.28
2024-04-15T16:22:04.575Z,99281.13
2024-04-15T16:24:32.474Z,99259.53
2024-04-15T16:27:01.922Z,99269.69
2024-04-15T16:29:30.511Z,99259.34
2024-04-15T16:31:58.169Z,99280.38
2024-04-15T16:34:28.152Z,99276.09
2024-04-15T16:36:56.256Z,99283.09
2024-04-15T16:39:24.813Z,99278.91
2024-04-15T16:41:53.280Z,99274.91
2024-04-15T16:44:21.028Z,99251.19
2024-04-15T16:46:48.852Z,99300.41
2024-04-15T16:49:21.528Z,99291.75
2024-04-15T16:51:49.291Z,99351.41
2024-04-15T16:54:17.904Z,99357.03
2024-04-15T16:56:45.651Z,99301.44
2024-04-15T16:59:14.174Z,99261.56
2024-04-15T17:01:43.660Z,99327.53
2024-04-15T17:04:12.460Z,99320.25
2024-04-15T17:06:40.557Z,99328.72
2024-04-15T17:09:11.042Z,99333.78
2024-04-15T17:11:40.270Z,99354.69
2024-04-15T17:14:08.867Z,99300.81
2024-04-15T17:16:36.644Z,99287.47
2024-04-15T17:19:06.227Z,99325.91
2024-04-15T17:21:34.431Z,99275.91
2024-04-15T17:24:02.260Z,99351.28
2024-04-15T17:26:30.971Z,99352.38
2024-04-15T17:29:02.691Z,99333.09
2024-04-15T17:31:30.421Z,99317.22
2024-04-15T17:34:00.994Z,99372.66
2024-04-15T17:36:28.769Z,99355.31
2024-04-15T17:38:57.478Z,99370.06
2024-04-15T17:41:25.189Z,99368.50
2024-04-15T17:43:53.012Z,99337.34
2024-04-15T17:46:20.755Z,99349.22
2024-04-15T17:48:51.754Z,99340.88
2024-04-15T17:51:19.461Z,99231.16
2024-04-15T17:53:49.868Z,99373.41
2024-04-15T17:56:19.247Z,99284.59
2024-04-15T17:58:49.015Z,99362.94
2024-04-15T18:01:16.734Z,99374.97
2024-04-15T18:03:45.998Z,99345.28
2024-04-15T18:06:13.777Z,99411.50
2024-04-15T18:08:43.706Z,99278.28
2024-04-15T18:11:12.553Z,99364.44
2024-04-15T18:13:41.132Z,99362.47
2024-04-15T18:16:13.037Z,99408.69
2024-04-15T18:18:42.024Z,99396.53
2024-04-15T18:21:09.797Z,99414.72
2024-04-15T18:23:39.032Z,99387.06
2024-04-15T18:26:07.887Z,99416.34
2024-04-15T18:28:37.652Z,99422.41
2024-04-15T18:31:06.101Z,99410.16
2024-04-15T18:33:33.923Z,99444.63
2024-04-15T18:36:01.665Z,99417.44
2024-04-15T18:38:29.376Z,99447.03
2024-04-15T18:40:57.486Z,99392.19
2024-04-15T18:43:25.277Z,99423.84
2024-04-15T18:45:53.280Z,99436.00
2024-04-15T18:48:22.385Z,99448.72
2024-04-15T18:50:50.097Z,99437.19
2024-04-15T18:53:17.871Z,99440.25
2024-04-15T18:55:46.858Z,99431.72
2024-04-15T18:58:14.695Z,99442.56
2024-04-15T19:00:42.649Z,99476.09
2024-04-15T19:03:11.950Z,99464.94
2024-04-15T19:05:39.949Z,99425.81
2024-04-15T19:08:08.122Z,99428.97
2024-04-15T19:10:36.282Z,99440.88
2024-04-15T19:13:04.284Z,99438.22
2024-04-15T19:15:32.019Z,99432.75
2024-04-15T19:17:59.739Z,99454.13
2024-04-15T19:20:27.507Z,99444.66
2024-04-15T19:22:55.193Z,99433.47
2024-04-15T19:25:24.618Z,99471.34
2024-04-15T19:27:52.591Z,99459.53
2024-04-15T19:30:23.701Z,99461.25
2024-04-15T19:32:53.167Z,99367.47
2024-04-15T19:35:20.907Z,99479.50
2024-04-15T19:37:48.672Z,99468.19
2024-04-15T19:40:16.495Z,99446.47
2024-04-15T19:42:45.059Z,99458.34
2024-04-15T19:45:13.516Z,99454.59
2024-04-15T19:47:42.667Z,99435.03
2024-04-15T19:50:10.459Z,99432.38
2024-04-15T19:52:40.478Z,99444.63
2024-04-15T19:55:08.509Z,99451.19
2024-04-15T19:57:36.288Z,99472.09
2024-04-15T20:00:04.112Z,99405.16
2024-04-15T20:02:32.939Z,99462.25
2024-04-15T20:05:00.878Z,99463.22
2024-04-15T20:07:29.625Z,99452.53
2024-04-15T20:09:57.743Z,99464.69
2024-04-15T20:12:29.073Z,99451.19
2024-04-15T20:14:59.269Z,99461.88
2024-04-15T20:17:41.671Z,99421.09
2024-04-15T20:20:17.523Z,99433.97
2024-04-15T20:22:46.051Z,99488.88
2024-04-15T20:25:13.870Z,99447.94
2024-04-15T20:27:42.504Z,99470.16
2024-04-15T20:30:10.694Z,99467.47
2024-04-15T20:32:41.051Z,99472.69
2024-04-15T20:35:10.599Z,99476.09
2024-04-15T20:37:40.828Z,99449.38
2024-04-15T20:40:09.719Z,99482.53
2024-04-15T20:42:37.971Z,99450.47
2024-04-15T20:45:06.328Z,99462.50
2024-04-15T20:47:34.163Z,99448.88
2024-04-15T20:50:03.034Z,99444.41
2024-04-15T20:52:31.843Z,99461.75
2024-04-15T20:54:59.628Z,99492.72
2024-04-15T20:57:30.098Z,99462.38
2024-04-15T20:59:57.852Z,99474.66
2024-04-15T21:02:25.616Z,99464.78
2024-04-15T21:04:53.454Z,99435.78
2024-04-15T21:07:21.309Z,99473.91
2024-04-15T21:09:49.054Z,99465.53
2024-04-15T21:12:16.875Z,99467.19
2024-04-15T21:14:44.593Z,99475.81
2024-04-15T21:17:12.628Z,99448.88
2024-04-15T21:19:40.490Z,99459.19
2024-04-15T21:22:08.380Z,99486.16
2024-04-15T21:24:39.959Z,99434.78
2024-04-15T21:27:10.175Z,99453.00
2024-04-15T21:29:38.598Z,99478.66
2024-04-15T21:32:06.669Z,99428.97
2024-04-15T21:34:34.409Z,99456.78
2024-04-15T21:37:02.154Z,99454.72
2024-04-15T21:39:29.870Z,99469.66
2024-04-15T21:41:57.599Z,99434.66
2024-04-15T21:44:25.254Z,99443.19
2024-04-15T21:46:53.346Z,99467.34
2024-04-15T21:49:22.239Z,99430.75
2024-04-15T21:51:50.012Z,99440.13
2024-04-15T21:54:17.647Z,99455.56
2024-04-15T21:56:45.364Z,99456.03
2024-04-15T21:59:13.142Z,99470.63
2024-04-15T22:01:40.852Z,99485.09
2024-04-15T22:04:08.641Z,99461.38
2024-04-15T22:06:36.336Z,99471.84
2024-04-15T22:09:04.563Z,99441.25
2024-04-15T22:11:32.614Z,99473.41
2024-04-15T22:14:00.323Z,99476.06
2024-04-15T22:16:28.391Z,99482.88
2024-04-15T22:18:56.155Z,99465.16
2024-04-15T22:21:23.825Z,99472.94
2024-04-15T22:23:51.508Z,99469.28
2024-04-15T22:26:19.177Z,99475.97
2024-04-15T22:28:46.896Z,99471.84
2024-04-15T22:31:14.756Z,99437.94
2024-04-15T22:33:42.669Z,99463.44
2024-04-15T22:36:10.405Z,99450.94
2024-04-15T22:38:38.100Z,99461.03
2024-04-15T22:41:05.907Z,99489.34
2024-04-15T22:43:33.688Z,99456.28
2024-04-15T22:46:01.488Z,99480.44
2024-04-15T22:48:29.301Z,99452.75
2024-04-15T22:50:56.947Z,99461.50
2024-04-15T22:53:25.838Z,99444.75
2024-04-15T22:55:59.833Z,99448.16
2024-04-15T22:58:27.526Z,99453.75
2024-04-15T23:00:55.292Z,99441.50
2024-04-15T23:03:23.052Z,99453.88
2024-04-15T23:05:50.704Z,99432.16
2024-04-15T23:08:19.345Z,99449.03
2024-04-15T23:10:50.177Z,99441.84
2024-04-15T23:13:18.048Z,99435.06
2024-04-15T23:15:45.735Z,99432.97
2024-04-15T23:18:13.444Z,99449.75
2024-04-15T23:20:41.101Z,99437.22
2024-04-15T23:23:10.610Z,99420.59
2024-04-15T23:25:38.315Z,99446.69
2024-04-15T23:28:06.429Z,99463.84
2024-04-15T23:30:34.282Z,99419.50
2024-04-15T23:33:08.593Z,99465.53
2024-04-15T23:35:36.280Z,99439.31
2024-04-15T23:38:04.692Z,99427.41
2024-04-15T23:40:33.633Z,99456.94
2024-04-15T23:43:01.406Z,99440.16
2024-04-15T23:45:56.623Z,99435.56
2024-04-15T23:48:43.531Z,99423.06
2024-04-15T23:51:33.347Z,99430.44
2024-04-15T23:54:19.741Z,99438.81
2024-04-15T23:57:06.499Z,99445.88
2024-04-15T23:59:35.249Z,99406.78
